HADR METAR and TAF | Updated Today

HADR METAR

Aba Tenna Dejazmach Yilma International Airport

Observation time: 4:17 hr. ago

HADR 061600Z 03009KT CAVOK 27/01 Q1019 NOSIG

Need help? Read our tutorial on how to read METARs or read the parsed version below.

Aba Tenna Dejazmach Yilma International Airport (HADR) METAR

  • Weather conditions on Mon, 06 Feb 2023 16:00:00 +0000 (4:17 hr. ago):
  • Present conditions: Dry
  • Clouds: Clear skies
  • Visibility: Greater than 10 km
  • Wind: 30 degrees at 9 knots
  • Temperature: 27 celsius
  • Dew point: 1 celsius
  • Pressure: 1019 millibars
  • Remarks: None


Useful to know...

HADR TAF

Aba Tenna Dejazmach Yilma International Airport

TAF HADR 061530Z 0618/0724 04003KT CAVOK
Observation time: 4:47 hr. ago
Need help? Read our tutorial on how to read TAFs or read the parsed version below.

Parsed version of TAF for Aba Tenna Dejazmach Yilma International Airport (HADR)

  • From 06 February at 18:00 UTC, to day 07 of the month at 24:00 UTC
  • Visibility: Greater than 10 km
  • Wind: 40 degrees at 3

Airports near HADR

No airports found within 100nm radius.